createdAt,value
2017-11-25T00:01:00.660Z,21.8
2017-11-25T00:02:09.834Z,21.83
2017-11-25T00:03:19.291Z,21.8
2017-11-25T00:04:28.458Z,21.79
2017-11-25T00:05:37.393Z,21.75
2017-11-25T00:06:46.593Z,21.74
2017-11-25T00:07:56.065Z,21.75
2017-11-25T00:09:04.971Z,21.69
2017-11-25T00:10:14.393Z,21.77
2017-11-25T00:11:23.347Z,21.74
2017-11-25T00:12:31.978Z,21.74
2017-11-25T00:13:40.901Z,21.74
2017-11-25T00:14:50.345Z,21.77
2017-11-25T00:15:59.235Z,21.71
2017-11-25T00:17:08.414Z,21.71
2017-11-25T00:18:17.347Z,21.8
2017-11-25T00:19:26.510Z,21.8
2017-11-25T00:20:35.965Z,21.69
2017-11-25T00:21:44.897Z,21.74
2017-11-25T00:22:54.091Z,21.71
2017-11-25T00:24:03.006Z,21.77
2017-11-25T00:25:12.184Z,21.77
2017-11-25T00:26:21.368Z,21.74
2017-11-25T00:27:30.805Z,21.68
2017-11-25T00:28:40.240Z,21.72
2017-11-25T00:29:49.696Z,21.75
2017-11-25T00:30:59.396Z,21.75
2017-11-25T00:32:08.298Z,21.74
2017-11-25T00:33:17.508Z,21.77
2017-11-25T00:34:26.477Z,21.69
2017-11-25T00:35:35.153Z,21.71
2017-11-25T00:36:44.312Z,21.68
2017-11-25T00:37:53.244Z,21.75
2017-11-25T00:39:02.463Z,21.75
2017-11-25T00:40:11.384Z,21.77
2017-11-25T00:41:20.311Z,21.74
2017-11-25T00:42:29.211Z,21.74
2017-11-25T00:43:38.381Z,21.72
2017-11-25T00:44:47.028Z,21.79
2017-11-25T00:45:56.207Z,21.74
2017-11-25T00:47:05.685Z,21.68
2017-11-25T00:48:15.409Z,21.74
2017-11-25T00:49:24.580Z,21.69
2017-11-25T00:50:33.239Z,21.71
2017-11-25T00:51:42.412Z,21.71
2017-11-25T00:52:52.111Z,21.74
2017-11-25T00:54:01.310Z,21.72
2017-11-25T00:55:10.212Z,21.74
2017-11-25T00:56:19.636Z,21.75
2017-11-25T00:57:28.574Z,21.71
2017-11-25T00:58:38.045Z,21.74
2017-11-25T00:59:47.528Z,21.72
2017-11-25T01:00:56.696Z,21.68
2017-11-25T01:02:05.888Z,21.72
2017-11-25T01:03:15.351Z,21.69
2017-11-25T01:04:25.065Z,21.68
2017-11-25T01:05:34.000Z,21.72
2017-11-25T01:06:42.919Z,21.69
2017-11-25T01:07:51.841Z,21.67
2017-11-25T01:09:01.278Z,21.65
2017-11-25T01:10:09.962Z,21.61
2017-11-25T01:11:19.406Z,21.68
2017-11-25T01:12:28.577Z,21.64
2017-11-25T01:13:37.779Z,21.65
2017-11-25T01:14:46.973Z,21.65
2017-11-25T01:15:55.916Z,21.71
2017-11-25T01:17:05.905Z,21.74
2017-11-25T01:18:14.534Z,21.68
2017-11-25T01:19:23.991Z,21.72
2017-11-25T01:20:33.171Z,21.68
2017-11-25T01:21:42.875Z,21.72
2017-11-25T01:22:52.074Z,21.64
2017-11-25T01:24:01.779Z,21.65
2017-11-25T01:25:10.449Z,21.65
2017-11-25T01:26:19.390Z,21.65
2017-11-25T01:27:28.820Z,21.67
2017-11-25T01:28:38.040Z,21.62
2017-11-25T01:29:47.198Z,21.69
2017-11-25T01:30:56.624Z,21.69
2017-11-25T01:32:05.295Z,21.65
2017-11-25T01:33:13.971Z,21.62
2017-11-25T01:34:23.156Z,21.67
2017-11-25T01:35:32.324Z,21.64
2017-11-25T01:36:41.500Z,21.65
2017-11-25T01:37:50.403Z,21.62
2017-11-25T01:39:00.112Z,21.69
2017-11-25T01:40:09.003Z,21.67
2017-11-25T01:41:17.668Z,21.67
2017-11-25T01:42:26.312Z,21.62
2017-11-25T01:43:35.230Z,21.65
2017-11-25T01:44:44.429Z,21.64
2017-11-25T01:45:53.067Z,21.69
2017-11-25T01:47:02.483Z,21.62
2017-11-25T01:48:11.653Z,21.64
2017-11-25T01:49:21.084Z,21.65
2017-11-25T01:50:30.237Z,21.65
2017-11-25T01:51:39.957Z,21.67
2017-11-25T01:52:49.117Z,21.68
2017-11-25T01:53:58.288Z,21.64
2017-11-25T01:55:07.460Z,21.65
2017-11-25T01:56:16.649Z,21.65
2017-11-25T01:57:26.112Z,21.64
2017-11-25T01:58:35.309Z,21.67
2017-11-25T01:59:44.477Z,21.61
2017-11-25T02:00:53.916Z,21.68
2017-11-25T02:02:02.859Z,21.65
2017-11-25T02:03:12.317Z,21.67
2017-11-25T02:04:21.555Z,21.62
2017-11-25T02:05:30.254Z,21.64
2017-11-25T02:06:39.699Z,21.59
2017-11-25T02:07:48.880Z,21.61
2017-11-25T02:08:57.803Z,21.65
2017-11-25T02:10:06.725Z,21.65
2017-11-25T02:11:16.455Z,21.65
2017-11-25T02:12:25.360Z,21.68
2017-11-25T02:13:34.848Z,21.56
2017-11-25T02:14:44.038Z,21.61
2017-11-25T02:15:52.674Z,21.61
2017-11-25T02:17:01.581Z,21.59
2017-11-25T02:18:10.484Z,21.65
2017-11-25T02:19:19.915Z,21.61
2017-11-25T02:20:29.084Z,21.5
2017-11-25T02:21:38.253Z,21.54
2017-11-25T02:22:47.944Z,21.56
2017-11-25T02:23:56.853Z,21.58
2017-11-25T02:25:06.051Z,21.53
2017-11-25T02:26:15.738Z,21.5
2017-11-25T02:27:24.906Z,21.54
2017-11-25T02:28:33.544Z,21.61
2017-11-25T02:29:42.998Z,21.54
2017-11-25T02:30:52.196Z,21.62
2017-11-25T02:32:01.653Z,21.54
2017-11-25T02:33:10.849Z,21.59
2017-11-25T02:34:20.299Z,21.54
2017-11-25T02:35:29.734Z,21.52
2017-11-25T02:36:38.642Z,21.54
2017-11-25T02:37:47.834Z,21.58
2017-11-25T02:38:56.758Z,21.54
2017-11-25T02:40:06.221Z,21.59
2017-11-25T02:41:15.144Z,21.54
2017-11-25T02:42:24.321Z,21.49
2017-11-25T02:43:33.003Z,21.44
2017-11-25T02:44:42.241Z,21.53
2017-11-25T02:45:51.191Z,21.52
2017-11-25T02:47:00.119Z,21.5
2017-11-25T02:48:09.366Z,21.52
2017-11-25T02:49:18.272Z,21.49
2017-11-25T02:50:27.197Z,21.54
2017-11-25T02:51:36.307Z,21.46
2017-11-25T02:52:45.576Z,21.46
2017-11-25T02:53:55.319Z,21.38
2017-11-25T02:55:05.109Z,21.42
2017-11-25T02:56:14.050Z,21.49
2017-11-25T02:57:23.345Z,21.43
2017-11-25T02:58:32.541Z,21.4
2017-11-25T02:59:42.040Z,21.44
2017-11-25T03:00:51.483Z,21.42
2017-11-25T03:02:00.681Z,21.44
2017-11-25T03:03:09.671Z,21.43
2017-11-25T03:04:18.349Z,21.38
2017-11-25T03:05:26.987Z,21.42
2017-11-25T03:06:36.164Z,21.43
2017-11-25T03:07:44.802Z,21.44
2017-11-25T03:08:53.713Z,21.4
2017-11-25T03:10:03.840Z,21.4
2017-11-25T03:11:12.811Z,21.4
2017-11-25T03:12:21.428Z,21.38
2017-11-25T03:13:30.689Z,21.47
2017-11-25T03:14:39.901Z,21.37
2017-11-25T03:15:49.063Z,21.44
2017-11-25T03:16:58.797Z,21.42
2017-11-25T03:18:07.922Z,21.31
2017-11-25T03:19:16.580Z,21.4
2017-11-25T03:20:25.897Z,21.35
2017-11-25T03:21:35.604Z,21.38
2017-11-25T03:22:45.313Z,21.34
2017-11-25T03:23:54.212Z,21.44
2017-11-25T03:25:03.922Z,21.37
2017-11-25T03:26:13.717Z,21.37
2017-11-25T03:27:22.854Z,21.34
2017-11-25T03:28:32.421Z,21.38
2017-11-25T03:29:42.061Z,21.35
2017-11-25T03:30:51.558Z,21.28
2017-11-25T03:32:00.752Z,21.29
2017-11-25T03:33:10.786Z,21.37
2017-11-25T03:34:19.683Z,21.35
2017-11-25T03:35:28.589Z,21.38
2017-11-25T03:36:37.808Z,21.27
2017-11-25T03:37:47.117Z,21.29
2017-11-25T03:38:55.934Z,21.28
2017-11-25T03:40:05.112Z,21.29
2017-11-25T03:41:14.140Z,21.28
2017-11-25T03:42:23.602Z,21.28
2017-11-25T03:43:32.535Z,21.25
2017-11-25T03:44:41.162Z,21.32
2017-11-25T03:45:50.452Z,21.22
2017-11-25T03:46:59.617Z,21.29
2017-11-25T03:48:09.017Z,21.28
2017-11-25T03:49:17.972Z,21.24
2017-11-25T03:50:27.184Z,21.27
2017-11-25T03:51:36.461Z,21.27
2017-11-25T03:52:45.796Z,21.29
2017-11-25T03:53:55.054Z,21.22
2017-11-25T03:55:04.457Z,21.24
2017-11-25T03:56:13.776Z,21.21
2017-11-25T03:57:22.959Z,21.22
2017-11-25T03:58:32.207Z,21.21
2017-11-25T03:59:41.906Z,21.24
2017-11-25T04:00:51.575Z,21.17
2017-11-25T04:02:00.491Z,21.25
2017-11-25T04:03:10.073Z,21.24
2017-11-25T04:04:19.854Z,21.27
2017-11-25T04:05:29.813Z,21.22
2017-11-25T04:06:39.033Z,21.14
2017-11-25T04:07:48.499Z,21.22
2017-11-25T04:08:57.429Z,21.14
2017-11-25T04:10:06.433Z,21.19
2017-11-25T04:11:15.585Z,21.22
2017-11-25T04:12:25.119Z,21.19
2017-11-25T04:13:33.797Z,21.09
2017-11-25T04:14:42.985Z,21.16
2017-11-25T04:15:52.435Z,21.17
2017-11-25T04:17:01.386Z,21.13
2017-11-25T04:18:11.085Z,21.14
2017-11-25T04:19:20.285Z,21.14
2017-11-25T04:20:29.550Z,21.16
2017-11-25T04:21:38.739Z,21.13
2017-11-25T04:22:47.723Z,21.12
2017-11-25T04:23:56.705Z,21.14
2017-11-25T04:25:05.815Z,21.14
2017-11-25T04:26:15.601Z,21.13
2017-11-25T04:27:24.768Z,21.09
2017-11-25T04:28:34.044Z,21.12
2017-11-25T04:29:43.390Z,21.09
2017-11-25T04:30:52.434Z,21.13
2017-11-25T04:32:01.619Z,21.09
2017-11-25T04:33:10.542Z,21.12
2017-11-25T04:34:19.185Z,21.14
2017-11-25T04:35:28.518Z,21.19
2017-11-25T04:36:38.031Z,21.06
2017-11-25T04:37:47.233Z,21.14
2017-11-25T04:38:56.162Z,21.01
2017-11-25T04:40:05.608Z,21.1
2017-11-25T04:41:14.778Z,21.13
2017-11-25T04:42:24.229Z,21.13
2017-11-25T04:43:33.695Z,21.06
2017-11-25T04:44:42.869Z,21.13
2017-11-25T04:45:52.568Z,21.04
2017-11-25T04:47:01.758Z,21.07
2017-11-25T04:48:11.195Z,21.03
2017-11-25T04:49:20.624Z,21.04
2017-11-25T04:50:29.279Z,21.04
2017-11-25T04:51:38.192Z,21.14
2017-11-25T04:52:47.379Z,21.07
2017-11-25T04:53:56.288Z,21.13
2017-11-25T04:55:05.200Z,21.03
2017-11-25T04:56:14.111Z,21.03
2017-11-25T04:57:22.762Z,21.1
2017-11-25T04:58:31.682Z,21.03
2017-11-25T04:59:40.857Z,21.04
2017-11-25T05:00:49.506Z,21.03
2017-11-25T05:01:58.676Z,21.12
2017-11-25T05:03:08.092Z,21.09
2017-11-25T05:04:17.531Z,21.09
2017-11-25T05:05:26.748Z,21.06
2017-11-25T05:06:36.177Z,21.03
2017-11-25T05:07:45.377Z,21.01
2017-11-25T05:08:54.547Z,21.06
2017-11-25T05:10:03.483Z,21.03
2017-11-25T05:11:12.641Z,21.07
2017-11-25T05:12:21.538Z,21.1
2017-11-25T05:13:30.454Z,21.03
2017-11-25T05:14:39.650Z,21.07
2017-11-25T05:15:48.903Z,21.03
2017-11-25T05:16:58.357Z,21.06
2017-11-25T05:18:07.829Z,21.07
2017-11-25T05:19:17.021Z,21.03
2017-11-25T05:20:26.188Z,21.09
2017-11-25T05:21:35.447Z,21.06
2017-11-25T05:22:44.106Z,20.98
2017-11-25T05:23:53.792Z,21.07
2017-11-25T05:25:03.039Z,21.04
2017-11-25T05:26:12.756Z,21.1
2017-11-25T05:27:21.742Z,20.97
2017-11-25T05:28:30.393Z,20.95
2017-11-25T05:29:39.557Z,21.03
2017-11-25T05:30:48.458Z,20.97
2017-11-25T05:31:57.390Z,21.04
2017-11-25T05:33:06.569Z,20.98
2017-11-25T05:34:15.515Z,20.98
2017-11-25T05:35:24.420Z,20.99
2017-11-25T05:36:33.588Z,20.99
2017-11-25T05:37:42.518Z,20.98
2017-11-25T05:38:52.034Z,20.98
2017-11-25T05:40:01.235Z,21.04
2017-11-25T05:41:10.163Z,20.97
2017-11-25T05:42:19.081Z,21.03
2017-11-25T05:43:28.547Z,20.99
2017-11-25T05:44:37.738Z,21.06
2017-11-25T05:45:46.921Z,20.95
2017-11-25T05:46:55.829Z,20.99
2017-11-25T05:48:04.992Z,21.04
2017-11-25T05:49:14.451Z,20.95
2017-11-25T05:50:23.624Z,21.06
2017-11-25T05:51:32.790Z,20.99
2017-11-25T05:52:41.693Z,20.94
2017-11-25T05:53:50.880Z,20.98
2017-11-25T05:54:59.514Z,20.97
2017-11-25T05:56:08.514Z,20.95
2017-11-25T05:57:17.961Z,20.95
2017-11-25T05:58:27.135Z,21.01
2017-11-25T05:59:36.054Z,20.98
2017-11-25T06:00:45.002Z,20.99
2017-11-25T06:01:54.467Z,21.09
2017-11-25T06:03:03.787Z,21.03
2017-11-25T06:04:12.684Z,20.97
2017-11-25T06:05:21.594Z,20.97
2017-11-25T06:06:30.759Z,21.06
2017-11-25T06:07:39.690Z,21.06
2017-11-25T06:08:48.604Z,20.99
2017-11-25T06:09:57.801Z,21.04
2017-11-25T06:11:06.972Z,20.99
2017-11-25T06:12:16.391Z,20.94
2017-11-25T06:13:25.290Z,20.99
2017-11-25T06:14:33.939Z,21.03
2017-11-25T06:15:43.118Z,21.04
2017-11-25T06:16:52.853Z,21.03
2017-11-25T06:18:02.331Z,20.95
2017-11-25T06:19:11.557Z,20.95
2017-11-25T06:20:20.530Z,20.97
2017-11-25T06:21:29.527Z,21.07
2017-11-25T06:22:38.693Z,20.99
2017-11-25T06:23:47.656Z,21.04
2017-11-25T06:24:56.579Z,20.97
2017-11-25T06:26:05.489Z,20.95
2017-11-25T06:27:14.447Z,20.97
2017-11-25T06:28:23.673Z,21.06
2017-11-25T06:29:32.852Z,21.07
2017-11-25T06:30:42.047Z,21.06
2017-11-25T06:31:51.230Z,20.99
2017-11-25T06:33:00.661Z,21.03
2017-11-25T06:34:09.854Z,21.04
2017-11-25T06:35:19.044Z,21.07
2017-11-25T06:36:28.003Z,20.99
2017-11-25T06:37:37.176Z,20.95
2017-11-25T06:38:46.368Z,21.03
2017-11-25T06:39:56.060Z,20.97
2017-11-25T06:41:05.268Z,21.04
2017-11-25T06:42:14.199Z,20.95
2017-11-25T06:43:22.833Z,21.06
2017-11-25T06:44:32.055Z,21.01
2017-11-25T06:45:40.987Z,20.94
2017-11-25T06:46:50.449Z,20.97
2017-11-25T06:47:59.654Z,20.99
2017-11-25T06:49:08.872Z,20.99
2017-11-25T06:50:17.801Z,20.97
2017-11-25T06:51:26.713Z,21.06
2017-11-25T06:52:36.152Z,20.99
2017-11-25T06:53:45.585Z,20.99
2017-11-25T06:54:55.066Z,20.95
2017-11-25T06:56:04.250Z,20.98
2017-11-25T06:57:13.203Z,21.01
2017-11-25T06:58:22.380Z,20.97
2017-11-25T06:59:31.293Z,21.01
2017-11-25T07:00:40.491Z,20.99
2017-11-25T07:01:49.434Z,20.99
2017-11-25T07:02:58.454Z,20.99
2017-11-25T07:04:07.630Z,20.97
2017-11-25T07:05:16.556Z,21.01
2017-11-25T07:06:25.250Z,21.03
2017-11-25T07:07:34.469Z,20.98
2017-11-25T07:08:43.644Z,21.06
2017-11-25T07:09:52.570Z,20.99
2017-11-25T07:11:02.059Z,20.99
2017-11-25T07:12:10.986Z,21.04
2017-11-25T07:13:19.909Z,21.01
2017-11-25T07:14:28.561Z,20.99
2017-11-25T07:15:37.762Z,20.97
2017-11-25T07:16:47.232Z,20.99
2017-11-25T07:17:56.406Z,21.06
2017-11-25T07:19:05.611Z,20.94
2017-11-25T07:20:14.815Z,20.99
2017-11-25T07:21:23.736Z,21.01
2017-11-25T07:22:32.944Z,20.99
2017-11-25T07:23:41.879Z,21.06
2017-11-25T07:24:51.097Z,21.03
2017-11-25T07:26:00.303Z,21.01
2017-11-25T07:27:08.966Z,21.04
2017-11-25T07:28:18.187Z,21.06
2017-11-25T07:29:26.849Z,21.04
2017-11-25T07:30:36.294Z,21.07
2017-11-25T07:31:45.466Z,21.03
2017-11-25T07:32:54.400Z,21.03
2017-11-25T07:34:03.861Z,21.06
2017-11-25T07:35:13.050Z,21.07
2017-11-25T07:36:22.213Z,21.07
2017-11-25T07:37:31.394Z,21.03
2017-11-25T07:38:40.314Z,21.06
2017-11-25T07:39:49.537Z,20.97
2017-11-25T07:40:58.711Z,21.06
2017-11-25T07:42:07.906Z,21.03
2017-11-25T07:43:16.549Z,20.98
2017-11-25T07:44:25.744Z,21.01
2017-11-25T07:45:34.687Z,20.98
2017-11-25T07:46:43.900Z,21.07
2017-11-25T07:47:52.825Z,20.97
2017-11-25T07:49:02.309Z,21.01
2017-11-25T07:50:11.518Z,20.97
2017-11-25T07:51:20.972Z,20.99
2017-11-25T07:52:30.200Z,21.01
2017-11-25T07:53:39.388Z,20.94
2017-11-25T07:54:48.821Z,21.06
2017-11-25T07:55:58.041Z,20.99
2017-11-25T07:57:06.710Z,20.97
2017-11-25T07:58:16.385Z,21.03
2017-11-25T07:59:25.592Z,20.99
2017-11-25T08:00:35.076Z,20.99
2017-11-25T08:01:44.708Z,21.03
2017-11-25T08:02:53.896Z,20.94
2017-11-25T08:04:03.213Z,21.03
2017-11-25T08:05:13.417Z,20.95
2017-11-25T08:06:23.052Z,20.94
2017-11-25T08:07:32.251Z,20.97
2017-11-25T08:08:41.196Z,20.97
2017-11-25T08:09:50.385Z,21.07
2017-11-25T08:11:00.124Z,21.03
2017-11-25T08:12:09.313Z,21.03
2017-11-25T08:13:18.225Z,21.07
2017-11-25T08:14:27.868Z,21.06
2017-11-25T08:15:36.795Z,21.12
2017-11-25T08:16:45.987Z,21.16
2017-11-25T08:17:55.160Z,21.25
2017-11-25T08:19:04.644Z,21.25
2017-11-25T08:20:13.721Z,21.32
2017-11-25T08:21:22.722Z,21.4
2017-11-25T08:22:32.639Z,21.4
2017-11-25T08:23:43.067Z,21.44
2017-11-25T08:24:52.983Z,21.54
2017-11-25T08:26:02.493Z,21.62
2017-11-25T08:27:11.693Z,21.71
2017-11-25T08:28:20.897Z,21.77
2017-11-25T08:29:29.580Z,21.94
2017-11-25T08:30:38.800Z,21.91
2017-11-25T08:31:47.715Z,21.98
2017-11-25T08:32:56.929Z,22.02
2017-11-25T08:34:06.419Z,21.96
2017-11-25T08:35:15.640Z,21.99
2017-11-25T08:36:25.436Z,22.02
2017-11-25T08:37:34.322Z,22.14
2017-11-25T08:38:43.571Z,22.21
2017-11-25T08:39:52.811Z,22.24
2017-11-25T08:41:02.265Z,22.27
2017-11-25T08:42:10.911Z,22.25
2017-11-25T08:43:19.816Z,22.39
2017-11-25T08:44:29.270Z,22.45
2017-11-25T08:45:38.720Z,22.42
2017-11-25T08:46:48.176Z,22.46
2017-11-25T08:47:56.836Z,22.58
2017-11-25T08:49:05.808Z,22.61
2017-11-25T08:50:14.725Z,22.7
2017-11-25T08:51:24.256Z,22.67
2017-11-25T08:52:33.297Z,22.61
2017-11-25T08:53:41.967Z,22.6
2017-11-25T08:54:51.172Z,22.72
2017-11-25T08:56:00.094Z,22.67
2017-11-25T08:57:09.278Z,22.7
2017-11-25T08:58:18.495Z,22.75
2017-11-25T08:59:27.146Z,22.77
2017-11-25T09:00:36.336Z,22.77
2017-11-25T09:01:45.774Z,22.82
2017-11-25T09:02:54.727Z,22.82
2017-11-25T09:04:03.931Z,22.86
2017-11-25T09:05:13.397Z,22.88
2017-11-25T09:06:22.575Z,22.91
2017-11-25T09:07:32.278Z,22.9
2017-11-25T09:08:41.491Z,22.88
2017-11-25T09:09:50.412Z,22.9
2017-11-25T09:10:59.352Z,22.9
2017-11-25T09:12:08.369Z,22.9
2017-11-25T09:13:17.572Z,22.88
2017-11-25T09:14:27.011Z,22.9
2017-11-25T09:15:35.929Z,22.86
2017-11-25T09:16:45.385Z,22.8
2017-11-25T09:17:54.584Z,22.82
2017-11-25T09:19:03.504Z,22.85
2017-11-25T09:20:12.414Z,22.77
2017-11-25T09:21:21.886Z,22.73
2017-11-25T09:22:30.541Z,22.82
2017-11-25T09:23:39.995Z,22.75
2017-11-25T09:24:49.175Z,22.7
2017-11-25T09:25:58.360Z,22.72
2017-11-25T09:27:07.583Z,22.72
2017-11-25T09:28:17.075Z,22.62
2017-11-25T09:29:26.305Z,22.6
2017-11-25T09:30:36.025Z,22.61
2017-11-25T09:31:44.956Z,22.6
2017-11-25T09:32:53.882Z,22.67
2017-11-25T09:34:02.806Z,22.58
2017-11-25T09:35:11.992Z,22.61
2017-11-25T09:36:20.919Z,22.61
2017-11-25T09:37:30.378Z,22.58
2017-11-25T09:38:39.293Z,22.61
2017-11-25T09:39:48.210Z,22.51
2017-11-25T09:40:57.126Z,22.52
2017-11-25T09:42:06.337Z,22.51
2017-11-25T09:43:15.256Z,22.54
2017-11-25T09:44:24.461Z,22.42
2017-11-25T09:45:34.174Z,22.46
2017-11-25T09:46:43.633Z,22.45
2017-11-25T09:47:52.282Z,22.45
2017-11-25T09:49:00.955Z,22.51
2017-11-25T09:50:09.617Z,22.36
2017-11-25T09:51:18.825Z,22.42
2017-11-25T09:52:27.755Z,22.4
2017-11-25T09:53:36.401Z,22.31
2017-11-25T09:54:45.608Z,22.39
2017-11-25T09:55:55.330Z,22.33
2017-11-25T09:57:04.257Z,22.28
2017-11-25T09:58:13.459Z,22.33
2017-11-25T09:59:22.122Z,22.27
2017-11-25T10:00:31.292Z,22.3
2017-11-25T10:01:40.229Z,22.25
2017-11-25T10:02:49.157Z,22.33
2017-11-25T10:03:58.786Z,22.33
2017-11-25T10:05:08.249Z,22.25
2017-11-25T10:06:17.199Z,22.22
2017-11-25T10:07:26.405Z,22.22
2017-11-25T10:08:35.335Z,22.2
2017-11-25T10:09:44.029Z,22.25
2017-11-25T10:10:53.476Z,22.21
2017-11-25T10:12:02.664Z,22.21
2017-11-25T10:13:11.861Z,22.17
2017-11-25T10:14:21.326Z,22.03
2017-11-25T10:15:30.778Z,22.14
2017-11-25T10:16:40.245Z,22.07
2017-11-25T10:17:49.452Z,22.06
2017-11-25T10:18:58.626Z,22.09
2017-11-25T10:20:07.800Z,22
2017-11-25T10:21:17.254Z,21.94
2017-11-25T10:22:26.194Z,21.99
2017-11-25T10:23:35.367Z,21.99
2017-11-25T10:24:45.095Z,22
2017-11-25T10:25:54.294Z,21.99
2017-11-25T10:27:04.011Z,21.98
2017-11-25T10:28:12.926Z,21.94
2017-11-25T10:29:22.123Z,22
2017-11-25T10:30:31.036Z,22
2017-11-25T10:31:39.949Z,22
2017-11-25T10:32:48.872Z,21.99
2017-11-25T10:33:57.795Z,21.9
2017-11-25T10:35:06.979Z,22.05
2017-11-25T10:36:15.900Z,22
2017-11-25T10:37:24.820Z,21.98
2017-11-25T10:38:34.267Z,22
2017-11-25T10:39:43.180Z,21.92
2017-11-25T10:40:52.093Z,21.99
2017-11-25T10:42:01.021Z,22
2017-11-25T10:43:10.731Z,21.88
2017-11-25T10:44:20.165Z,21.96
2017-11-25T10:45:29.361Z,21.98
2017-11-25T10:46:38.294Z,21.83
2017-11-25T10:47:46.945Z,21.98
2017-11-25T10:48:55.613Z,21.96
2017-11-25T10:50:04.806Z,21.96
2017-11-25T10:51:14.259Z,21.9
2017-11-25T10:52:23.188Z,21.99
2017-11-25T10:53:31.829Z,21.96
2017-11-25T10:54:41.030Z,21.96
2017-11-25T10:55:50.198Z,21.98
2017-11-25T10:56:59.416Z,21.96
2017-11-25T10:58:08.890Z,22.07
2017-11-25T10:59:18.073Z,22.03
2017-11-25T11:00:27.582Z,22.03
2017-11-25T11:01:36.794Z,22.06
2017-11-25T11:02:45.434Z,22.07
2017-11-25T11:03:54.368Z,22.12
2017-11-25T11:05:03.067Z,22.06
2017-11-25T11:06:11.989Z,22.02
2017-11-25T11:07:21.429Z,22.12
2017-11-25T11:08:30.385Z,22.06
2017-11-25T11:09:39.039Z,22.06
2017-11-25T11:10:48.489Z,22.07
2017-11-25T11:11:57.421Z,22.06
2017-11-25T11:13:06.900Z,22.06
2017-11-25T11:14:15.802Z,22.06
2017-11-25T11:15:25.260Z,22.02
2017-11-25T11:16:34.453Z,22.12
2017-11-25T11:17:43.098Z,22.02
2017-11-25T11:18:52.008Z,22.02
2017-11-25T11:20:01.196Z,22.05
2017-11-25T11:21:10.383Z,22.1
2017-11-25T11:22:19.582Z,22
2017-11-25T11:23:28.491Z,21.99
2017-11-25T11:24:37.406Z,22.06
2017-11-25T11:25:46.069Z,21.99
2017-11-25T11:26:55.533Z,21.99
2017-11-25T11:28:04.482Z,21.99
2017-11-25T11:29:13.925Z,22.02
2017-11-25T11:30:23.111Z,21.94
2017-11-25T11:31:32.018Z,21.94
2017-11-25T11:32:40.668Z,21.98
2017-11-25T11:33:49.583Z,21.99
2017-11-25T11:34:58.772Z,21.98
2017-11-25T11:36:07.962Z,21.98
2017-11-25T11:37:17.138Z,22
2017-11-25T11:38:26.339Z,21.94
2017-11-25T11:39:35.003Z,21.98
2017-11-25T11:40:44.490Z,21.94
2017-11-25T11:41:53.413Z,21.9
2017-11-25T11:43:02.082Z,22.02
2017-11-25T11:44:10.755Z,21.98
2017-11-25T11:45:20.269Z,21.84
2017-11-25T11:46:29.772Z,21.99
2017-11-25T11:47:39.463Z,21.91
2017-11-25T11:48:48.142Z,21.99
2017-11-25T11:49:57.627Z,21.99
2017-11-25T11:51:07.070Z,21.99
2017-11-25T11:52:15.977Z,21.88
2017-11-25T11:53:24.891Z,21.9
2017-11-25T11:54:34.062Z,21.92
2017-11-25T11:55:42.977Z,21.91
2017-11-25T11:56:52.429Z,21.91
2017-11-25T11:58:02.397Z,21.91
2017-11-25T11:59:11.609Z,21.9
2017-11-25T12:00:20.527Z,21.92
2017-11-25T12:01:29.699Z,21.91
2017-11-25T12:02:39.186Z,21.96
2017-11-25T12:03:48.384Z,21.8
2017-11-25T12:04:57.307Z,21.83
2017-11-25T12:06:06.253Z,21.9
2017-11-25T12:07:15.462Z,21.88
2017-11-25T12:08:25.195Z,21.9
2017-11-25T12:09:34.139Z,21.84
2017-11-25T12:10:43.310Z,21.83
2017-11-25T12:11:52.227Z,21.91
2017-11-25T12:13:01.413Z,21.9
2017-11-25T12:14:10.362Z,21.77
2017-11-25T12:15:19.810Z,21.83
2017-11-25T12:16:28.712Z,21.82
2017-11-25T12:17:38.162Z,21.9
2017-11-25T12:18:46.818Z,21.75
2017-11-25T12:19:56.581Z,21.92
2017-11-25T12:21:05.490Z,21.86
2017-11-25T12:22:14.945Z,21.86
2017-11-25T12:23:23.597Z,21.9
2017-11-25T12:24:32.506Z,21.88
2017-11-25T12:25:41.674Z,21.91
2017-11-25T12:26:50.851Z,21.84
2017-11-25T12:28:00.377Z,21.9
2017-11-25T12:29:09.584Z,21.98
2017-11-25T12:30:18.250Z,21.88
2017-11-25T12:31:27.433Z,21.9
2017-11-25T12:32:36.107Z,21.9
2017-11-25T12:33:45.050Z,21.9
2017-11-25T12:34:54.276Z,21.86
2017-11-25T12:36:03.221Z,21.96
2017-11-25T12:37:12.680Z,21.92
2017-11-25T12:38:21.867Z,21.96
2017-11-25T12:39:31.061Z,21.98
2017-11-25T12:40:40.521Z,22
2017-11-25T12:41:49.696Z,21.98
2017-11-25T12:42:58.358Z,21.99
2017-11-25T12:44:07.295Z,21.98
2017-11-25T12:45:16.485Z,22.1
2017-11-25T12:46:25.676Z,22.1
2017-11-25T12:47:34.588Z,22.06
2017-11-25T12:48:43.515Z,22.07
2017-11-25T12:49:52.973Z,22.12
2017-11-25T12:51:01.637Z,22.03
2017-11-25T12:52:10.280Z,22.14
2017-11-25T12:53:19.217Z,22.14
2017-11-25T12:54:27.865Z,22.2
2017-11-25T12:55:37.080Z,22.24
2017-11-25T12:56:46.789Z,22.2
2017-11-25T12:57:55.963Z,22.18
2017-11-25T12:59:05.156Z,22.14
2017-11-25T13:00:14.590Z,22.1
2017-11-25T13:01:23.797Z,22.05
2017-11-25T13:02:32.986Z,22.07
2017-11-25T13:03:42.172Z,22.06
2017-11-25T13:04:51.355Z,22.03
2017-11-25T13:06:00.300Z,22.09
2017-11-25T13:07:09.496Z,22.12
2017-11-25T13:08:18.156Z,22.1
2017-11-25T13:09:27.356Z,22
2017-11-25T13:10:36.293Z,21.96
2017-11-25T13:11:45.742Z,21.91
2017-11-25T13:12:55.499Z,22.05
2017-11-25T13:14:04.486Z,21.96
2017-11-25T13:15:13.682Z,21.98
2017-11-25T13:16:23.142Z,22.03
2017-11-25T13:17:31.840Z,21.96
2017-11-25T13:18:41.026Z,22.05
2017-11-25T13:19:49.688Z,21.98
2017-11-25T13:20:59.447Z,22.03
2017-11-25T13:22:08.899Z,22
2017-11-25T13:23:18.100Z,21.88
2017-11-25T13:24:27.338Z,21.84
2017-11-25T13:25:36.789Z,22
2017-11-25T13:26:45.706Z,21.88
2017-11-25T13:27:54.920Z,21.96
2017-11-25T13:29:03.845Z,21.96
2017-11-25T13:30:13.025Z,21.84
2017-11-25T13:31:23.005Z,21.92
2017-11-25T13:32:31.926Z,21.99
2017-11-25T13:33:41.151Z,21.83
2017-11-25T13:34:50.663Z,22
2017-11-25T13:35:59.877Z,21.9
2017-11-25T13:37:09.072Z,21.98
2017-11-25T13:38:18.574Z,21.98
2017-11-25T13:39:27.299Z,21.9
2017-11-25T13:40:36.505Z,21.91
2017-11-25T13:41:45.157Z,21.9
2017-11-25T13:42:54.373Z,21.91
2017-11-25T13:44:03.557Z,21.84
2017-11-25T13:45:12.512Z,21.92
2017-11-25T13:46:21.428Z,21.92
2017-11-25T13:47:30.358Z,21.92
2017-11-25T13:48:39.258Z,21.88
2017-11-25T13:49:48.436Z,21.9
2017-11-25T13:50:57.354Z,21.86
2017-11-25T13:52:06.812Z,21.9
2017-11-25T13:53:15.714Z,21.88
2017-11-25T13:54:24.918Z,21.84
2017-11-25T13:55:34.100Z,21.9
2017-11-25T13:56:43.539Z,21.88
2017-11-25T13:57:52.452Z,21.91
2017-11-25T13:59:01.286Z,21.86
2017-11-25T14:00:10.524Z,21.88
2017-11-25T14:01:19.465Z,21.86
2017-11-25T14:02:28.662Z,22
2017-11-25T14:03:38.110Z,21.96
2017-11-25T14:04:46.741Z,21.82
2017-11-25T14:05:56.495Z,21.96
2017-11-25T14:07:05.711Z,21.92
2017-11-25T14:08:14.619Z,21.96
2017-11-25T14:09:23.527Z,21.91
2017-11-25T14:10:32.747Z,21.94
2017-11-25T14:11:41.945Z,21.88
2017-11-25T14:12:51.134Z,21.9
2017-11-25T14:14:00.586Z,22.02
2017-11-25T14:15:09.530Z,21.99
2017-11-25T14:16:18.735Z,22
2017-11-25T14:17:27.725Z,21.94
2017-11-25T14:18:36.901Z,21.99
2017-11-25T14:19:45.844Z,22.03
2017-11-25T14:20:55.013Z,22.02
2017-11-25T14:22:04.178Z,21.96
2017-11-25T14:23:13.633Z,22
2017-11-25T14:24:22.309Z,21.98
2017-11-25T14:25:31.231Z,21.91
2017-11-25T14:26:40.664Z,21.98
2017-11-25T14:27:49.570Z,21.98
2017-11-25T14:28:58.522Z,22.05
2017-11-25T14:30:07.966Z,22.1
2017-11-25T14:31:17.656Z,21.94
2017-11-25T14:32:26.638Z,21.94
2017-11-25T14:33:35.832Z,21.98
2017-11-25T14:34:45.011Z,21.99
2017-11-25T14:35:53.926Z,21.94
2017-11-25T14:37:03.401Z,22
2017-11-25T14:38:12.599Z,21.98
2017-11-25T14:39:21.521Z,22.02
2017-11-25T14:40:30.697Z,22.03
2017-11-25T14:41:39.618Z,21.99
2017-11-25T14:42:49.064Z,21.94
2017-11-25T14:43:58.249Z,22
2017-11-25T14:45:07.696Z,22.02
2017-11-25T14:46:16.900Z,22.02
2017-11-25T14:47:25.803Z,21.94
2017-11-25T14:48:34.717Z,21.99
2017-11-25T14:49:43.654Z,21.91
2017-11-25T14:50:52.604Z,21.94
2017-11-25T14:52:01.526Z,22
2017-11-25T14:53:10.450Z,21.88
2017-11-25T14:54:19.637Z,22
2017-11-25T14:55:29.354Z,22.05